Terminal Aerodrome Forecast
Issued by NWS

Current Version | Previous Version | Graphics & Text | Print | Product List | Glossary On
Versions: 1 2 3 4 5 6 7 8 9 10 11 12 13 14 15 16 17 18 19 20 21 22 23 24 25 26 27 28
000
FTUS41 KRLX 080127 AAA
TAFCKB
TAF AMD
KCKB 080127Z 0801/0824 23008KT P6SM BKN035
      TEMPO 0801/0802 VRB15G25KT 3SM SHRA OVC022
     FM080200 23005KT 5SM SHRA VCTS OVC030CB
     FM080800 21005KT 6SM SHRA BR VCTS OVC025CB
     FM081600 24008KT 5SM SHRA VCTS OVC020CB=

USA.gov is the U.S. government's official web portal to all federal, state and local government web resources and services.